createdAt,value
2018-04-20T00:01:22.689Z,17.10
2018-04-20T00:03:50.377Z,17.10
2018-04-20T00:06:17.981Z,17.05
2018-04-20T00:08:45.645Z,17.00
2018-04-20T00:11:13.223Z,16.99
2018-04-20T00:13:41.142Z,17.00
2018-04-20T00:16:08.960Z,16.95
2018-04-20T00:18:36.779Z,16.96
2018-04-20T00:21:04.388Z,16.97
2018-04-20T00:23:32.216Z,17.03
2018-04-20T00:26:00.038Z,17.09
2018-04-20T00:28:27.620Z,17.14
2018-04-20T00:30:55.472Z,17.14
2018-04-20T00:33:23.150Z,17.14
2018-04-20T00:35:50.704Z,17.11
2018-04-20T00:38:18.280Z,17.13
2018-04-20T00:40:46.001Z,17.09
2018-04-20T00:43:13.568Z,17.08
2018-04-20T00:45:41.127Z,17.09
2018-04-20T00:48:08.875Z,17.13
2018-04-20T00:50:36.594Z,17.14
2018-04-20T00:53:04.583Z,17.08
2018-04-20T00:55:32.355Z,17.26
2018-04-20T00:57:59.934Z,17.22
2018-04-20T01:00:27.660Z,17.21
2018-04-20T01:02:55.212Z,17.18
2018-04-20T01:05:22.829Z,17.22
2018-04-20T01:07:50.509Z,17.20
2018-04-20T01:10:18.097Z,17.15
2018-04-20T01:12:45.675Z,17.10
2018-04-20T01:15:13.365Z,17.10
2018-04-20T01:17:41.022Z,17.08
2018-04-20T01:20:08.581Z,17.06
2018-04-20T01:22:36.350Z,17.14
2018-04-20T01:25:04.168Z,17.21
2018-04-20T01:27:31.725Z,17.29
2018-04-20T01:29:59.295Z,17.28
2018-04-20T01:32:26.847Z,17.25
2018-04-20T01:34:54.421Z,17.28
2018-04-20T01:37:22.157Z,17.25
2018-04-20T01:39:49.768Z,17.26
2018-04-20T01:42:17.324Z,17.28
2018-04-20T01:44:44.890Z,17.21
2018-04-20T01:47:12.466Z,17.18
2018-04-20T01:49:40.012Z,17.14
2018-04-20T01:52:07.568Z,17.10
2018-04-20T01:54:35.172Z,17.03
2018-04-20T01:57:02.940Z,16.94
2018-04-20T01:59:30.502Z,16.90
2018-04-20T02:01:58.159Z,16.91
2018-04-20T02:04:25.733Z,16.91
2018-04-20T02:06:53.471Z,16.92
2018-04-20T02:09:21.076Z,16.92
2018-04-20T02:11:48.809Z,16.92
2018-04-20T02:14:16.420Z,16.95
2018-04-20T02:16:44.249Z,16.94
2018-04-20T02:19:11.946Z,16.92
2018-04-20T02:21:39.657Z,16.91
2018-04-20T02:24:07.374Z,16.92
2018-04-20T02:26:34.941Z,16.90
2018-04-20T02:29:02.482Z,16.93
2018-04-20T02:31:30.089Z,16.95
2018-04-20T02:33:57.641Z,16.95
2018-04-20T02:36:25.393Z,17.03
2018-04-20T02:38:53.057Z,17.02
2018-04-20T02:41:20.611Z,16.97
2018-04-20T02:43:48.227Z,16.97
2018-04-20T02:46:15.788Z,16.96
2018-04-20T02:48:43.582Z,16.95
2018-04-20T02:51:11.388Z,16.94
2018-04-20T02:53:38.961Z,16.91
2018-04-20T02:56:06.737Z,16.88
2018-04-20T02:58:34.296Z,16.85
2018-04-20T03:01:02.154Z,16.81
2018-04-20T03:03:29.792Z,16.79
2018-04-20T03:05:57.405Z,16.70
2018-04-20T03:08:24.965Z,16.67
2018-04-20T03:10:52.534Z,16.63
2018-04-20T03:13:20.234Z,16.60
2018-04-20T03:15:47.950Z,16.54
2018-04-20T03:18:15.667Z,16.52
2018-04-20T03:20:43.385Z,16.49
2018-04-20T03:23:10.996Z,16.44
2018-04-20T03:25:38.549Z,16.40
2018-04-20T03:28:06.113Z,16.37
2018-04-20T03:30:33.675Z,16.34
2018-04-20T03:33:01.224Z,16.25
2018-04-20T03:35:28.769Z,16.18
2018-04-20T03:37:56.324Z,16.05
2018-04-20T03:40:23.932Z,15.89
2018-04-20T03:42:51.679Z,15.69
2018-04-20T03:45:19.221Z,15.50
2018-04-20T03:47:46.780Z,15.23
2018-04-20T03:50:14.346Z,15.01
2018-04-20T03:52:41.920Z,14.77
2018-04-20T03:55:09.477Z,14.31
2018-04-20T03:57:37.088Z,13.90
2018-04-20T04:00:04.713Z,13.61
2018-04-20T04:02:32.393Z,13.43
2018-04-20T04:04:59.956Z,13.36
2018-04-20T04:07:27.759Z,13.19
2018-04-20T04:09:55.480Z,13.17
2018-04-20T04:12:23.257Z,13.14
2018-04-20T04:14:50.935Z,13.15
2018-04-20T04:17:30.176Z,13.17
2018-04-20T04:20:09.387Z,13.15
2018-04-20T04:22:48.637Z,13.13
2018-04-20T04:25:28.355Z,13.06
2018-04-20T04:28:07.600Z,12.99
2018-04-20T04:30:35.210Z,12.88
2018-04-20T04:33:02.830Z,12.76
2018-04-20T04:35:30.380Z,12.67
2018-04-20T04:37:58.180Z,12.60
2018-04-20T04:40:25.783Z,12.50
2018-04-20T04:42:53.330Z,12.47
2018-04-20T04:45:21.135Z,12.45
2018-04-20T04:47:48.936Z,12.49
2018-04-20T04:50:16.589Z,12.55
2018-04-20T04:52:44.289Z,12.59
2018-04-20T04:55:12.107Z,12.56
2018-04-20T04:57:39.764Z,12.53
2018-04-20T05:00:07.324Z,12.55
2018-04-20T05:02:34.877Z,12.52
2018-04-20T05:05:02.481Z,12.50
2018-04-20T05:07:30.297Z,12.47
2018-04-20T05:09:57.849Z,12.48
2018-04-20T05:12:25.595Z,12.47
2018-04-20T05:14:53.229Z,12.47
2018-04-20T05:17:20.970Z,12.44
2018-04-20T05:19:48.579Z,12.46
2018-04-20T05:22:16.185Z,12.49
2018-04-20T05:24:43.742Z,12.46
2018-04-20T05:27:11.542Z,12.44
2018-04-20T05:29:39.361Z,12.39
2018-04-20T05:32:06.910Z,12.35
2018-04-20T05:34:34.697Z,12.33
2018-04-20T05:37:02.474Z,12.37
2018-04-20T05:39:30.094Z,12.36
2018-04-20T05:41:57.685Z,12.36
2018-04-20T05:44:25.333Z,12.36
2018-04-20T05:46:52.942Z,12.32
2018-04-20T05:49:20.532Z,12.32
2018-04-20T05:51:48.132Z,12.22
2018-04-20T05:54:15.726Z,12.12
2018-04-20T05:56:43.459Z,12.10
2018-04-20T05:59:11.038Z,12.05
2018-04-20T06:01:39.129Z,12.09
2018-04-20T06:04:06.741Z,12.13
2018-04-20T06:06:34.533Z,12.11
2018-04-20T06:09:02.128Z,12.12
2018-04-20T06:11:29.720Z,12.17
2018-04-20T06:13:57.432Z,12.23
2018-04-20T06:16:25.065Z,12.30
2018-04-20T06:18:52.679Z,12.27
2018-04-20T06:21:20.330Z,12.16
2018-04-20T06:23:47.968Z,12.10
2018-04-20T06:26:15.586Z,12.10
2018-04-20T06:28:43.176Z,12.11
2018-04-20T06:31:10.794Z,12.11
2018-04-20T06:33:38.352Z,12.14
2018-04-20T06:36:06.001Z,12.24
2018-04-20T06:38:33.658Z,12.30
2018-04-20T06:41:01.211Z,12.38
2018-04-20T06:43:28.757Z,12.37
2018-04-20T06:45:56.305Z,12.29
2018-04-20T06:48:23.916Z,12.32
2018-04-20T06:50:51.551Z,12.31
2018-04-20T06:53:19.107Z,12.35
2018-04-20T06:55:46.705Z,12.41
2018-04-20T06:58:14.510Z,12.49
2018-04-20T07:00:42.330Z,12.56
2018-04-20T07:03:10.032Z,12.59
2018-04-20T07:05:37.640Z,12.65
2018-04-20T07:08:05.274Z,12.70
2018-04-20T07:10:32.851Z,12.72
2018-04-20T07:13:00.425Z,12.77
2018-04-20T07:15:27.965Z,12.89
2018-04-20T07:17:55.524Z,12.96
2018-04-20T07:20:23.354Z,13.18
2018-04-20T07:22:51.009Z,13.49
2018-04-20T07:25:18.708Z,13.94
2018-04-20T07:27:46.427Z,14.93
2018-04-20T07:30:13.992Z,15.94
2018-04-20T07:32:41.656Z,16.50
2018-04-20T07:35:09.280Z,16.39
2018-04-20T07:37:36.870Z,15.83
2018-04-20T07:40:04.719Z,15.91
2018-04-20T07:42:32.293Z,16.87
2018-04-20T07:44:59.848Z,17.77
2018-04-20T07:47:27.674Z,19.44
2018-04-20T07:49:55.228Z,20.77
2018-04-20T07:52:22.800Z,22.02
2018-04-20T07:54:50.385Z,22.60
2018-04-20T07:57:18.062Z,23.16
2018-04-20T07:59:45.622Z,23.26
2018-04-20T08:02:13.180Z,23.73
2018-04-20T08:04:40.822Z,23.25
2018-04-20T08:07:08.397Z,22.97
2018-04-20T08:09:35.968Z,22.81
2018-04-20T08:12:03.541Z,22.50
2018-04-20T08:14:31.372Z,22.23
2018-04-20T08:16:59.198Z,22.26
2018-04-20T08:19:27.006Z,21.76
2018-04-20T08:21:54.578Z,21.49
2018-04-20T08:24:22.137Z,22.26
2018-04-20T08:26:49.707Z,22.41
2018-04-20T08:29:17.449Z,21.78
2018-04-20T08:31:45.296Z,21.60
2018-04-20T08:34:13.163Z,21.55
2018-04-20T08:36:40.939Z,21.70
2018-04-20T08:39:08.542Z,22.16
2018-04-20T08:41:36.270Z,22.10
2018-04-20T08:44:03.837Z,22.36
2018-04-20T08:46:31.390Z,22.52
2018-04-20T08:48:59.070Z,23.34
2018-04-20T08:51:26.635Z,23.35
2018-04-20T08:53:54.241Z,22.73
2018-04-20T08:56:21.821Z,21.98
2018-04-20T08:58:49.597Z,21.98
2018-04-20T09:01:17.207Z,21.90
2018-04-20T09:03:44.931Z,21.78
2018-04-20T09:06:12.650Z,21.93
2018-04-20T09:08:40.236Z,22.41
2018-04-20T09:11:07.954Z,22.46
2018-04-20T09:13:35.528Z,22.15
2018-04-20T09:16:03.097Z,21.29
2018-04-20T09:18:30.679Z,20.63
2018-04-20T09:20:58.273Z,21.16
2018-04-20T09:23:25.991Z,21.29
2018-04-20T09:25:53.673Z,21.53
2018-04-20T09:28:21.205Z,21.99
2018-04-20T09:30:48.753Z,22.21
2018-04-20T09:33:16.324Z,22.51
2018-04-20T09:35:43.899Z,22.03
2018-04-20T09:38:11.574Z,22.12
2018-04-20T09:40:39.139Z,22.50
2018-04-20T09:43:06.706Z,22.69
2018-04-20T09:45:34.437Z,22.28
2018-04-20T09:48:01.993Z,22.57
2018-04-20T09:50:29.774Z,22.46
2018-04-20T09:52:57.333Z,22.19
2018-04-20T09:55:24.901Z,22.66
2018-04-20T09:57:52.465Z,23.04
2018-04-20T10:00:20.029Z,22.66
2018-04-20T10:02:47.659Z,22.20
2018-04-20T10:05:15.318Z,21.91
2018-04-20T10:07:42.895Z,22.40
2018-04-20T10:10:10.461Z,22.06
2018-04-20T10:12:38.060Z,22.69
2018-04-20T10:15:05.767Z,23.45
2018-04-20T10:17:33.571Z,23.95
2018-04-20T10:20:01.129Z,24.34
2018-04-20T10:22:28.705Z,24.39
2018-04-20T10:24:56.427Z,24.02
2018-04-20T10:27:24.244Z,22.92
2018-04-20T10:29:52.062Z,23.06
2018-04-20T10:32:19.624Z,23.42
2018-04-20T10:34:47.206Z,23.61
2018-04-20T10:37:14.768Z,23.91
2018-04-20T10:39:42.533Z,24.32
2018-04-20T10:42:10.089Z,24.86
2018-04-20T10:44:37.870Z,24.98
2018-04-20T10:47:05.433Z,24.68
2018-04-20T10:49:33.028Z,24.74
2018-04-20T10:52:00.824Z,25.01
2018-04-20T10:54:28.542Z,25.12
2018-04-20T10:56:56.157Z,24.52
2018-04-20T10:59:23.769Z,24.56
2018-04-20T11:01:51.326Z,25.10
2018-04-20T11:04:18.884Z,24.88
2018-04-20T11:06:46.437Z,24.20
2018-04-20T11:09:14.248Z,23.72
2018-04-20T11:11:41.810Z,24.16
2018-04-20T11:14:09.415Z,24.56
2018-04-20T11:16:37.422Z,24.86
2018-04-20T11:19:05.224Z,24.70
2018-04-20T11:21:32.806Z,24.77
2018-04-20T11:24:00.356Z,24.48
2018-04-20T11:26:27.916Z,24.77
2018-04-20T11:28:55.464Z,24.37
2018-04-20T11:31:23.311Z,23.81
2018-04-20T11:33:50.921Z,23.38
2018-04-20T11:36:18.540Z,23.63
2018-04-20T11:38:46.108Z,23.80
2018-04-20T11:41:13.882Z,23.98
2018-04-20T11:43:41.448Z,23.90
2018-04-20T11:46:09.110Z,23.27
2018-04-20T11:48:36.722Z,23.06
2018-04-20T11:51:04.289Z,23.00
2018-04-20T11:53:31.830Z,22.52
2018-04-20T11:55:59.394Z,21.87
2018-04-20T11:58:26.951Z,21.46
2018-04-20T12:00:54.532Z,21.25
2018-04-20T12:03:22.245Z,21.44
2018-04-20T12:05:49.808Z,21.61
2018-04-20T12:08:17.350Z,21.35
2018-04-20T12:10:44.960Z,21.01
2018-04-20T12:13:12.720Z,21.16
2018-04-20T12:15:40.536Z,21.17
2018-04-20T12:18:08.146Z,21.60
2018-04-20T12:20:35.976Z,22.30
2018-04-20T12:23:03.553Z,22.55
2018-04-20T12:25:31.129Z,21.62
2018-04-20T12:27:58.781Z,21.22
2018-04-20T12:30:26.545Z,20.88
2018-04-20T12:32:54.263Z,20.40
2018-04-20T12:35:21.832Z,20.35
2018-04-20T12:37:49.388Z,20.03
2018-04-20T12:40:16.952Z,19.79
2018-04-20T12:42:44.735Z,19.35
2018-04-20T12:45:12.352Z,19.09
2018-04-20T12:47:40.179Z,18.93
2018-04-20T12:50:07.784Z,18.98
2018-04-20T12:52:35.349Z,19.04
2018-04-20T12:55:03.125Z,19.15
2018-04-20T12:57:30.836Z,19.22
2018-04-20T12:59:58.400Z,19.29
2018-04-20T13:02:26.156Z,19.52
2018-04-20T13:04:53.712Z,19.61
2018-04-20T13:07:21.274Z,19.63
2018-04-20T13:09:48.845Z,19.79
2018-04-20T13:12:16.652Z,19.96
2018-04-20T13:14:44.218Z,20.37
2018-04-20T13:17:12.385Z,20.30
2018-04-20T13:19:40.001Z,20.05
2018-04-20T13:22:07.569Z,19.81
2018-04-20T13:24:35.306Z,19.62
2018-04-20T13:27:03.023Z,19.29
2018-04-20T13:29:30.572Z,19.09
2018-04-20T13:31:58.168Z,19.00
2018-04-20T13:34:25.729Z,18.99
2018-04-20T13:36:53.535Z,18.90
2018-04-20T13:39:21.129Z,18.73
2018-04-20T13:41:48.691Z,18.61
2018-04-20T13:44:16.257Z,18.54
2018-04-20T13:46:43.798Z,18.55
2018-04-20T13:49:11.497Z,18.61
2018-04-20T13:51:39.048Z,18.80
2018-04-20T13:54:06.669Z,19.02
2018-04-20T13:56:34.225Z,19.32
2018-04-20T13:59:01.785Z,19.67
2018-04-20T14:01:29.481Z,19.72
2018-04-20T14:03:57.037Z,19.81
2018-04-20T14:06:24.849Z,19.81
2018-04-20T14:08:52.405Z,19.81
2018-04-20T14:11:20.273Z,19.78
2018-04-20T14:13:47.846Z,19.75
2018-04-20T14:16:15.585Z,19.91
2018-04-20T14:18:43.185Z,20.04
2018-04-20T14:21:10.721Z,19.99
2018-04-20T14:23:38.453Z,19.86
2018-04-20T14:26:06.154Z,19.78
2018-04-20T14:28:33.836Z,19.77
2018-04-20T14:31:01.397Z,19.86
2018-04-20T14:33:28.973Z,19.77
2018-04-20T14:35:56.649Z,19.62
2018-04-20T14:38:24.205Z,19.70
2018-04-20T14:40:51.771Z,19.88
2018-04-20T14:43:19.363Z,19.96
2018-04-20T14:45:47.203Z,20.01
2018-04-20T14:48:14.805Z,20.19
2018-04-20T14:50:42.504Z,20.17
2018-04-20T14:53:10.065Z,20.01
2018-04-20T14:55:37.617Z,19.89
2018-04-20T14:58:05.181Z,19.67
2018-04-20T15:00:32.742Z,19.66
2018-04-20T15:03:00.393Z,19.63
2018-04-20T15:05:28.146Z,19.67
2018-04-20T15:07:55.679Z,19.72
2018-04-20T15:10:23.226Z,19.84
2018-04-20T15:12:50.771Z,19.86
2018-04-20T15:15:18.332Z,19.76
2018-04-20T15:17:45.888Z,19.66
2018-04-20T15:20:13.562Z,19.65
2018-04-20T15:22:41.120Z,19.46
2018-04-20T15:25:08.671Z,19.41
2018-04-20T15:27:36.390Z,19.40
2018-04-20T15:30:04.013Z,19.30
2018-04-20T15:32:31.653Z,19.07
2018-04-20T15:34:59.204Z,19.04
2018-04-20T15:37:26.817Z,18.95
2018-04-20T15:39:54.486Z,18.95
2018-04-20T15:42:22.078Z,18.90
2018-04-20T15:44:49.653Z,18.73
2018-04-20T15:47:17.449Z,18.62
2018-04-20T15:49:45.013Z,18.45
2018-04-20T15:52:12.601Z,18.23
2018-04-20T15:54:40.504Z,18.14
2018-04-20T15:57:08.126Z,18.02
2018-04-20T15:59:35.731Z,18.02
2018-04-20T16:02:03.558Z,17.96
2018-04-20T16:04:31.091Z,17.85
2018-04-20T16:06:58.684Z,17.78
2018-04-20T16:09:26.411Z,17.62
2018-04-20T16:11:54.191Z,17.57
2018-04-20T16:14:22.050Z,17.46
2018-04-20T16:16:49.768Z,17.31
2018-04-20T16:19:17.587Z,17.19
2018-04-20T16:21:45.163Z,17.19
2018-04-20T16:24:12.736Z,17.10
2018-04-20T16:26:40.541Z,16.95
2018-04-20T16:29:08.145Z,16.92
2018-04-20T16:31:35.693Z,16.92
2018-04-20T16:34:03.495Z,16.94
2018-04-20T16:36:31.052Z,16.91
2018-04-20T16:38:58.876Z,16.90
2018-04-20T16:41:26.438Z,16.83
2018-04-20T16:43:53.996Z,16.76
2018-04-20T16:46:21.785Z,16.71
2018-04-20T16:48:49.503Z,16.64
2018-04-20T16:51:17.072Z,16.56
2018-04-20T16:53:44.800Z,16.51
2018-04-20T16:56:12.365Z,16.46
2018-04-20T16:58:39.945Z,16.39
2018-04-20T17:01:07.534Z,16.27
2018-04-20T17:03:35.312Z,16.10
2018-04-20T17:06:02.876Z,16.06
2018-04-20T17:08:30.458Z,15.91
2018-04-20T17:10:58.026Z,15.72
2018-04-20T17:13:25.785Z,15.62
2018-04-20T17:15:53.356Z,15.53
2018-04-20T17:18:20.917Z,15.42
2018-04-20T17:20:48.628Z,15.30
2018-04-20T17:23:16.356Z,15.23
2018-04-20T17:25:43.916Z,15.09
2018-04-20T17:28:11.484Z,15.00
2018-04-20T17:30:39.057Z,15.01
2018-04-20T17:33:06.621Z,14.99
2018-04-20T17:35:34.194Z,14.90
2018-04-20T17:38:02.065Z,14.77
2018-04-20T17:40:29.663Z,14.63
2018-04-20T17:42:57.398Z,14.58
2018-04-20T17:45:24.986Z,14.56
2018-04-20T17:47:52.552Z,14.50
2018-04-20T17:50:20.121Z,14.41
2018-04-20T17:52:47.677Z,14.29
2018-04-20T17:55:15.386Z,14.27
2018-04-20T17:57:42.953Z,14.12
2018-04-20T18:00:10.517Z,13.98
2018-04-20T18:02:38.096Z,13.95
2018-04-20T18:05:05.654Z,13.90
2018-04-20T18:07:33.216Z,13.85
2018-04-20T18:10:00.966Z,13.74
2018-04-20T18:12:28.818Z,13.74
2018-04-20T18:14:56.633Z,13.73
2018-04-20T18:17:24.243Z,13.74
2018-04-20T18:19:52.041Z,13.72
2018-04-20T18:22:19.750Z,13.68
2018-04-20T18:24:47.343Z,13.57
2018-04-20T18:27:15.082Z,13.56
2018-04-20T18:29:42.720Z,13.51
2018-04-20T18:32:10.284Z,13.39
2018-04-20T18:34:37.864Z,13.31
2018-04-20T18:37:05.574Z,13.28
2018-04-20T18:39:33.205Z,13.23
2018-04-20T18:42:00.771Z,13.14
2018-04-20T18:44:28.551Z,13.02
2018-04-20T18:46:56.259Z,13.02
2018-04-20T18:49:23.897Z,12.99
2018-04-20T18:51:51.496Z,12.90
2018-04-20T18:54:19.057Z,12.73
2018-04-20T18:56:46.628Z,12.69
2018-04-20T18:59:14.225Z,12.67
2018-04-20T19:01:41.784Z,12.65
2018-04-20T19:04:09.393Z,12.62
2018-04-20T19:06:36.949Z,12.60
2018-04-20T19:09:04.729Z,12.60
2018-04-20T19:11:32.288Z,12.63
2018-04-20T19:13:59.844Z,12.61
2018-04-20T19:16:27.473Z,12.57
2018-04-20T19:18:55.979Z,12.59
2018-04-20T19:21:23.704Z,12.55
2018-04-20T19:23:51.268Z,12.55
2018-04-20T19:26:18.829Z,12.48
2018-04-20T19:28:46.404Z,12.43
2018-04-20T19:31:14.195Z,12.40
2018-04-20T19:33:41.776Z,12.34
2018-04-20T19:36:09.496Z,12.27
2018-04-20T19:38:37.140Z,12.12
2018-04-20T19:41:04.680Z,12.05
2018-04-20T19:43:32.245Z,12.03
2018-04-20T19:45:59.831Z,12.02
2018-04-20T19:48:27.624Z,11.99
2018-04-20T19:50:55.438Z,12.02
2018-04-20T19:53:23.013Z,11.88
2018-04-20T19:55:50.675Z,11.86
2018-04-20T19:58:18.237Z,11.77
2018-04-20T20:00:45.794Z,11.70
2018-04-20T20:03:13.628Z,11.57
2018-04-20T20:05:41.338Z,11.55
2018-04-20T20:08:09.070Z,11.54
2018-04-20T20:10:36.887Z,11.52
2018-04-20T20:13:04.461Z,11.54
2018-04-20T20:15:32.184Z,11.51
2018-04-20T20:17:59.849Z,11.46
2018-04-20T20:20:27.471Z,11.45
2018-04-20T20:22:55.273Z,11.40
2018-04-20T20:25:22.825Z,11.33
2018-04-20T20:27:50.503Z,11.26
2018-04-20T20:30:18.208Z,11.26
2018-04-20T20:32:45.768Z,11.23
2018-04-20T20:35:13.321Z,11.25
2018-04-20T20:37:41.158Z,11.25
2018-04-20T20:40:08.721Z,11.17
2018-04-20T20:42:36.518Z,11.07
2018-04-20T20:45:04.338Z,11.05
2018-04-20T20:47:32.049Z,11.06
2018-04-20T20:49:59.612Z,11.03
2018-04-20T20:52:27.178Z,10.99
2018-04-20T20:54:54.801Z,10.91
2018-04-20T20:57:22.356Z,10.87
2018-04-20T20:59:49.918Z,10.92
2018-04-20T21:02:17.485Z,10.88
2018-04-20T21:04:45.280Z,10.86
2018-04-20T21:07:12.853Z,10.84
2018-04-20T21:09:40.407Z,10.88
2018-04-20T21:12:08.234Z,10.82
2018-04-20T21:14:35.843Z,10.73
2018-04-20T21:17:03.409Z,10.75
2018-04-20T21:19:31.068Z,10.79
2018-04-20T21:21:58.620Z,10.74
2018-04-20T21:24:26.198Z,10.64
2018-04-20T21:26:53.757Z,10.58
2018-04-20T21:29:21.368Z,10.61
2018-04-20T21:31:49.177Z,10.49
2018-04-20T21:34:16.733Z,10.38
2018-04-20T21:36:44.313Z,10.34
2018-04-20T21:39:11.875Z,10.31
2018-04-20T21:41:39.439Z,10.25
2018-04-20T21:44:06.986Z,10.27
2018-04-20T21:46:34.785Z,10.23
2018-04-20T21:49:02.504Z,10.23
2018-04-20T21:51:30.064Z,10.24
2018-04-20T21:53:57.839Z,10.23
2018-04-20T21:56:25.403Z,10.16
2018-04-20T21:58:53.278Z,10.07
2018-04-20T22:01:20.836Z,10.11
2018-04-20T22:03:48.453Z,10.04
2018-04-20T22:06:16.016Z,10.04
2018-04-20T22:08:43.718Z,9.97
2018-04-20T22:11:11.276Z,9.96
2018-04-20T22:13:38.832Z,9.94
2018-04-20T22:16:06.493Z,9.94
2018-04-20T22:18:34.088Z,9.84
2018-04-20T22:21:01.677Z,9.71
2018-04-20T22:23:29.456Z,9.65
2018-04-20T22:25:57.025Z,9.50
2018-04-20T22:28:24.603Z,9.36
2018-04-20T22:30:52.176Z,9.26
2018-04-20T22:33:19.741Z,9.23
2018-04-20T22:35:47.296Z,9.26
2018-04-20T22:38:14.900Z,9.26
2018-04-20T22:40:42.460Z,9.25
2018-04-20T22:43:10.021Z,9.27
2018-04-20T22:45:37.597Z,9.21
2018-04-20T22:48:05.306Z,9.17
2018-04-20T22:50:33.023Z,9.23
2018-04-20T22:53:00.739Z,9.23
2018-04-20T22:55:28.594Z,9.21
2018-04-20T22:57:56.145Z,9.15
2018-04-20T23:00:23.754Z,9.10
2018-04-20T23:02:51.325Z,9.07
2018-04-20T23:05:18.905Z,9.06
2018-04-20T23:07:46.481Z,9.07
2018-04-20T23:10:14.082Z,9.03
2018-04-20T23:12:41.920Z,8.94
2018-04-20T23:15:09.481Z,8.89
2018-04-20T23:17:37.037Z,8.88
2018-04-20T23:20:04.612Z,8.86
2018-04-20T23:22:32.168Z,8.89
2018-04-20T23:24:59.762Z,8.99
2018-04-20T23:27:27.494Z,8.99
2018-04-20T23:29:55.226Z,8.96
2018-04-20T23:32:22.789Z,8.98
2018-04-20T23:34:50.348Z,8.98
2018-04-20T23:37:18.060Z,8.92
2018-04-20T23:39:45.621Z,8.91
2018-04-20T23:42:13.192Z,8.87
2018-04-20T23:44:40.758Z,8.83
2018-04-20T23:47:08.328Z,8.81
2018-04-20T23:49:35.888Z,8.77
2018-04-20T23:52:03.448Z,8.75
2018-04-20T23:54:31.063Z,8.76
2018-04-20T23:56:58.839Z,8.77
2018-04-20T23:59:26.406Z,8.72
